Missouri River (Missouri), Napolean (06894650)

StateMissouriLatestUnknown (71500 cfs)
RiverMissouri RiverRatingObservedEstimated
Updated2020-07-13 17:00 (1 hour ago)Flood - The river is flooding. Obstacles can be treacherous or deadly. The river should be avoided at this stage for casual trips and definitely for the inexperienced. Trips should be attempted only with protective gear and equipment.Flood(none)(none)
Discharge71500 cfs (median: 81900 cfs)High - The river is high and potentially dangerous, especially for the young and / or inexperienced. Normal stream obstacles are sometimes difficult to navigate. Extended distances can be attempted, but canoe travel may not be advisable.High(none)(none)
Height11.72 feetGood - Conditions are ideal for a canoe or kayak. Boats typically will drag on fewer than one-quarter of riffles, if at all, and portages are unnecessary or rare. Normal float lengths can be attempted without a problem.Good(none)(none)
TrendFalling (rising over 24 hours)Low - River is low but can still be floated. Some riffles are okay but most come with significant dragging and might need a portage. Float lengths should be reduced to accommodate low flow, dragging, and portages.Low(none)(none)
USGSExternal icon USGS Site (External icon Google Maps)Poor - River is too low to float comfortably. Most or all riffles will drag or must be portaged and some obstacles (such as slick shelf rock) cause undue problems. Avoid the river at this stage for casual paddling trips.Poor(none)(none)

Trending Data

Plot Image

Trips for Missouri River (Missouri), Napolean (06894650)

DateStartEndDistanceConditionDischargeHeightFishingDetails

A total of 0 rows are displayed.

Condition Descriptions

Fishing Conditions

Fish Species

Notes

Classic Trip List

The classic River Trips application is still available for use. It is updated with the new system using a data retrofit. It is no longer maintained. The original River Trips application is no longer updated (as of 1 Dec 2016) but can be checked for errors or for the condition of the data before it was converted to the new system.

Gauge Data Table

ObservationHeightDischargeMaximum
Discharge
Minimum
Discharge
Mean
Discharge
P05P10P20P25P50
(Median)
P75P80P90P95
2020-07-13 17:00 11.72 71500 164000 (2019) 57600 (2017) 97500 62300 69300 81900 134000 152000
2020-07-13 16:00 11.74 71700 164000 (2019) 57600 (2017) 97500 62300 69300 81900 134000 152000
2020-07-13 15:00 11.73 71600 164000 (2019) 57600 (2017) 97500 62300 69300 81900 134000 152000
2020-07-13 14:00 11.73 71600 164000 (2019) 57600 (2017) 97500 62300 69300 81900 134000 152000
2020-07-13 13:00 11.74 71700 164000 (2019) 57600 (2017) 97500 62300 69300 81900 134000 152000
2020-07-13 12:00 11.72 71500 164000 (2019) 57600 (2017) 97500 62300 69300 81900 134000 152000
2020-07-13 11:00 11.71 71500 164000 (2019) 57600 (2017) 97500 62300 69300 81900 134000 152000
2020-07-13 10:00 11.71 71500 164000 (2019) 57600 (2017) 97500 62300 69300 81900 134000 152000
2020-07-13 09:00 11.71 71500 164000 (2019) 57600 (2017) 97500 62300 69300 81900 134000 152000
2020-07-13 08:00 11.70 71400 164000 (2019) 57600 (2017) 97500 62300 69300 81900 134000 152000
2020-07-13 07:00 11.68 71300 164000 (2019) 57600 (2017) 97500 62300 69300 81900 134000 152000
2020-07-13 06:00 11.66 71100 164000 (2019) 57600 (2017) 97500 62300 69300 81900 134000 152000
2020-07-13 05:00 11.63 70900 164000 (2019) 57600 (2017) 97500 62300 69300 81900 134000 152000
2020-07-13 04:00 11.60 70700 164000 (2019) 57600 (2017) 97500 62300 69300 81900 134000 152000
2020-07-13 03:00 11.58 70500 164000 (2019) 57600 (2017) 97500 62300 69300 81900 134000 152000
2020-07-13 02:00 11.57 70500 164000 (2019) 57600 (2017) 97500 62300 69300 81900 134000 152000
2020-07-13 01:00 11.56 70400 164000 (2019) 57600 (2017) 97500 62300 69300 81900 134000 152000
2020-07-13 00:00 11.54 70200 164000 (2019) 57600 (2017) 97500 62300 69300 81900 134000 152000
2020-07-12 23:00 11.52 70100 166000 (2019) 59400 (2017) 97300 62200 66300 83800 135000 154000
2020-07-12 22:00 11.52 70100 166000 (2019) 59400 (2017) 97300 62200 66300 83800 135000 154000
2020-07-12 21:00 11.52 70100 166000 (2019) 59400 (2017) 97300 62200 66300 83800 135000 154000
2020-07-12 20:00 11.52 70100 166000 (2019) 59400 (2017) 97300 62200 66300 83800 135000 154000
2020-07-12 19:00 11.50 69900 166000 (2019) 59400 (2017) 97300 62200 66300 83800 135000 154000
2020-07-12 18:00 11.51 70000 166000 (2019) 59400 (2017) 97300 62200 66300 83800 135000 154000
2020-07-12 17:00 11.51 70000 166000 (2019) 59400 (2017) 97300 62200 66300 83800 135000 154000
2020-07-12 16:00 11.51 70000 166000 (2019) 59400 (2017) 97300 62200 66300 83800 135000 154000
2020-07-12 15:00 11.51 70000 166000 (2019) 59400 (2017) 97300 62200 66300 83800 135000 154000
2020-07-12 14:00 11.54 70200 166000 (2019) 59400 (2017) 97300 62200 66300 83800 135000 154000
2020-07-12 13:00 11.54 70200 166000 (2019) 59400 (2017) 97300 62200 66300 83800 135000 154000
2020-07-12 12:00 11.55 70300 166000 (2019) 59400 (2017) 97300 62200 66300 83800 135000 154000
2020-07-12 11:00 11.55 70300 166000 (2019) 59400 (2017) 97300 62200 66300 83800 135000 154000
2020-07-12 10:00 11.59 70600 166000 (2019) 59400 (2017) 97300 62200 66300 83800 135000 154000
2020-07-12 09:00 11.60 70700 166000 (2019) 59400 (2017) 97300 62200 66300 83800 135000 154000
2020-07-12 08:00 11.63 70900 166000 (2019) 59400 (2017) 97300 62200 66300 83800 135000 154000
2020-07-12 07:00 11.64 71000 166000 (2019) 59400 (2017) 97300 62200 66300 83800 135000 154000
2020-07-12 06:00 11.66 71100 166000 (2019) 59400 (2017) 97300 62200 66300 83800 135000 154000
2020-07-12 05:00 11.67 71200 166000 (2019) 59400 (2017) 97300 62200 66300 83800 135000 154000
2020-07-12 04:00 11.71 71500 166000 (2019) 59400 (2017) 97300 62200 66300 83800 135000 154000
2020-07-12 03:00 11.71 71500 166000 (2019) 59400 (2017) 97300 62200 66300 83800 135000 154000
2020-07-12 02:00 11.73 71600 166000 (2019) 59400 (2017) 97300 62200 66300 83800 135000 154000
2020-07-12 01:00 11.75 71800 166000 (2019) 59400 (2017) 97300 62200 66300 83800 135000 154000
2020-07-12 00:00 11.77 71900 166000 (2019) 59400 (2017) 97300 62200 66300 83800 135000 154000
2020-07-11 23:00 11.80 72100 168000 (2019) 62400 (2017) 100000 64000 66400 93800 137000 156000
2020-07-11 22:00 11.85 72500 168000 (2019) 62400 (2017) 100000 64000 66400 93800 137000 156000
2020-07-11 21:00 11.87 72600 168000 (2019) 62400 (2017) 100000 64000 66400 93800 137000 156000
2020-07-11 20:00 11.90 72900 168000 (2019) 62400 (2017) 100000 64000 66400 93800 137000 156000
2020-07-11 19:00 11.90 72900 168000 (2019) 62400 (2017) 100000 64000 66400 93800 137000 156000
2020-07-11 18:00 11.93 73100 168000 (2019) 62400 (2017) 100000 64000 66400 93800 137000 156000
2020-07-11 17:00 11.96 73300 168000 (2019) 62400 (2017) 100000 64000 66400 93800 137000 156000
2020-07-11 16:00 11.97 73400 168000 (2019) 62400 (2017) 100000 64000 66400 93800 137000 156000
2020-07-11 15:00 11.99 73500 168000 (2019) 62400 (2017) 100000 64000 66400 93800 137000 156000
2020-07-11 14:00 12.00 73600 168000 (2019) 62400 (2017) 100000 64000 66400 93800 137000 156000
2020-07-11 13:00 12.02 73800 168000 (2019) 62400 (2017) 100000 64000 66400 93800 137000 156000
2020-07-11 12:00 12.03 73800 168000 (2019) 62400 (2017) 100000 64000 66400 93800 137000 156000
2020-07-11 11:00 12.03 73800 168000 (2019) 62400 (2017) 100000 64000 66400 93800 137000 156000
2020-07-11 10:00 12.04 73900 168000 (2019) 62400 (2017) 100000 64000 66400 93800 137000 156000
2020-07-11 09:00 12.06 74100 168000 (2019) 62400 (2017) 100000 64000 66400 93800 137000 156000
2020-07-11 08:00 12.07 74100 168000 (2019) 62400 (2017) 100000 64000 66400 93800 137000 156000
2020-07-11 07:00 12.08 74200 168000 (2019) 62400 (2017) 100000 64000 66400 93800 137000 156000
2020-07-11 06:00 12.09 74300 168000 (2019) 62400 (2017) 100000 64000 66400 93800 137000 156000
2020-07-11 05:00 12.11 74400 168000 (2019) 62400 (2017) 100000 64000 66400 93800 137000 156000
2020-07-11 04:00 12.10 74400 168000 (2019) 62400 (2017) 100000 64000 66400 93800 137000 156000
2020-07-11 03:00 12.10 74400 168000 (2019) 62400 (2017) 100000 64000 66400 93800 137000 156000
2020-07-11 02:00 12.10 74400 168000 (2019) 62400 (2017) 100000 64000 66400 93800 137000 156000
2020-07-11 01:00 12.13 74600 168000 (2019) 62400 (2017) 100000 64000 66400 93800 137000 156000
2020-07-11 00:00 12.13 74600 168000 (2019) 62400 (2017) 100000 64000 66400 93800 137000 156000
2020-07-10 23:00 12.13 74600 176000 (2019) 64700 (2017) 106000 68000 72900 99900 142000 162000
2020-07-10 22:00 12.13 74600 176000 (2019) 64700 (2017) 106000 68000 72900 99900 142000 162000
2020-07-10 21:00 12.13 74600 176000 (2019) 64700 (2017) 106000 68000 72900 99900 142000 162000
2020-07-10 20:00 12.16 74800 176000 (2019) 64700 (2017) 106000 68000 72900 99900 142000 162000
2020-07-10 19:00 12.15 74700 176000 (2019) 64700 (2017) 106000 68000 72900 99900 142000 162000
2020-07-10 18:00 12.15 74700 176000 (2019) 64700 (2017) 106000 68000 72900 99900 142000 162000
2020-07-10 17:00 12.16 74800 176000 (2019) 64700 (2017) 106000 68000 72900 99900 142000 162000
2020-07-10 16:00 12.17 74900 176000 (2019) 64700 (2017) 106000 68000 72900 99900 142000 162000
2020-07-10 15:00 12.17 74900 176000 (2019) 64700 (2017) 106000 68000 72900 99900 142000 162000
2020-07-10 14:00 12.19 75000 176000 (2019) 64700 (2017) 106000 68000 72900 99900 142000 162000
2020-07-10 13:00 12.20 75100 176000 (2019) 64700 (2017) 106000 68000 72900 99900 142000 162000
2020-07-10 12:00 12.22 75300 176000 (2019) 64700 (2017) 106000 68000 72900 99900 142000 162000
2020-07-10 11:00 12.22 75300 176000 (2019) 64700 (2017) 106000 68000 72900 99900 142000 162000
2020-07-10 10:00 12.23 75300 176000 (2019) 64700 (2017) 106000 68000 72900 99900 142000 162000
2020-07-10 09:00 12.24 75400 176000 (2019) 64700 (2017) 106000 68000 72900 99900 142000 162000
2020-07-10 08:00 12.25 75500 176000 (2019) 64700 (2017) 106000 68000 72900 99900 142000 162000
2020-07-10 07:00 12.26 75600 176000 (2019) 64700 (2017) 106000 68000 72900 99900 142000 162000
2020-07-10 06:00 12.27 75600 176000 (2019) 64700 (2017) 106000 68000 72900 99900 142000 162000
2020-07-10 05:00 12.30 75900 176000 (2019) 64700 (2017) 106000 68000 72900 99900 142000 162000
2020-07-10 04:00 12.30 75900 176000 (2019) 64700 (2017) 106000 68000 72900 99900 142000 162000
2020-07-10 03:00 12.32 76000 176000 (2019) 64700 (2017) 106000 68000 72900 99900 142000 162000
2020-07-10 02:00 12.35 76200 176000 (2019) 64700 (2017) 106000 68000 72900 99900 142000 162000
2020-07-10 01:00 12.38 76500 176000 (2019) 64700 (2017) 106000 68000 72900 99900 142000 162000
2020-07-10 00:00 12.37 76400 176000 (2019) 64700 (2017) 106000 68000 72900 99900 142000 162000
2020-07-09 23:00 12.38 76500 178000 (2019) 66700 (2017) 110000 68900 72300 113000 147000 166000
2020-07-09 22:00 12.40 76600 178000 (2019) 66700 (2017) 110000 68900 72300 113000 147000 166000
2020-07-09 21:00 12.42 76800 178000 (2019) 66700 (2017) 110000 68900 72300 113000 147000 166000
2020-07-09 20:00 12.43 76900 178000 (2019) 66700 (2017) 110000 68900 72300 113000 147000 166000
2020-07-09 19:00 12.44 76900 178000 (2019) 66700 (2017) 110000 68900 72300 113000 147000 166000
2020-07-09 18:00 12.47 77200 178000 (2019) 66700 (2017) 110000 68900 72300 113000 147000 166000
2020-07-09 17:00 12.48 77200 178000 (2019) 66700 (2017) 110000 68900 72300 113000 147000 166000
2020-07-09 16:00 12.49 77300 178000 (2019) 66700 (2017) 110000 68900 72300 113000 147000 166000
2020-07-09 15:00 12.50 77400 178000 (2019) 66700 (2017) 110000 68900 72300 113000 147000 166000
2020-07-09 14:00 12.50 77400 178000 (2019) 66700 (2017) 110000 68900 72300 113000 147000 166000
2020-07-09 13:00 12.51 77500 178000 (2019) 66700 (2017) 110000 68900 72300 113000 147000 166000
2020-07-09 12:00 12.52 77600 178000 (2019) 66700 (2017) 110000 68900 72300 113000 147000 166000
2020-07-09 11:00 12.52 77600 178000 (2019) 66700 (2017) 110000 68900 72300 113000 147000 166000
2020-07-09 10:00 12.52 77600 178000 (2019) 66700 (2017) 110000 68900 72300 113000 147000 166000
2020-07-09 09:00 12.54 77700 178000 (2019) 66700 (2017) 110000 68900 72300 113000 147000 166000
2020-07-09 08:00 12.56 77900 178000 (2019) 66700 (2017) 110000 68900 72300 113000 147000 166000
2020-07-09 07:00 12.57 77900 178000 (2019) 66700 (2017) 110000 68900 72300 113000 147000 166000
2020-07-09 06:00 12.58 78000 178000 (2019) 66700 (2017) 110000 68900 72300 113000 147000 166000
2020-07-09 05:00 12.61 78300 178000 (2019) 66700 (2017) 110000 68900 72300 113000 147000 166000
2020-07-09 04:00 12.63 78400 178000 (2019) 66700 (2017) 110000 68900 72300 113000 147000 166000
2020-07-09 03:00 12.64 78500 178000 (2019) 66700 (2017) 110000 68900 72300 113000 147000 166000
2020-07-09 02:00 12.66 78600 178000 (2019) 66700 (2017) 110000 68900 72300 113000 147000 166000
2020-07-09 01:00 12.66 78600 178000 (2019) 66700 (2017) 110000 68900 72300 113000 147000 166000
2020-07-09 00:00 12.68 78800 178000 (2019) 66700 (2017) 110000 68900 72300 113000 147000 166000
2020-07-08 23:00 12.71 79000 180000 (2019) 68600 (2017) 116000 69000 69700 120000 160000 172000
2020-07-08 22:00 12.71 79000 180000 (2019) 68600 (2017) 116000 69000 69700 120000 160000 172000
2020-07-08 21:00 12.73 79200 180000 (2019) 68600 (2017) 116000 69000 69700 120000 160000 172000
2020-07-08 20:00 12.74 79300 180000 (2019) 68600 (2017) 116000 69000 69700 120000 160000 172000
2020-07-08 19:00 12.75 79300 180000 (2019) 68600 (2017) 116000 69000 69700 120000 160000 172000
2020-07-08 18:00 12.77 79500 180000 (2019) 68600 (2017) 116000 69000 69700 120000 160000 172000
2020-07-08 17:00 12.78 79600 180000 (2019) 68600 (2017) 116000 69000 69700 120000 160000 172000
2020-07-08 16:00 12.78 76100 180000 (2019) 68600 (2017) 116000 69000 69700 120000 160000 172000
2020-07-08 15:00 12.81 76300 180000 (2019) 68600 (2017) 116000 69000 69700 120000 160000 172000
2020-07-08 14:00 12.81 76300 180000 (2019) 68600 (2017) 116000 69000 69700 120000 160000 172000
2020-07-08 13:00 12.83 76500 180000 (2019) 68600 (2017) 116000 69000 69700 120000 160000 172000
2020-07-08 12:00 12.83 76500 180000 (2019) 68600 (2017) 116000 69000 69700 120000 160000 172000
2020-07-08 11:00 12.83 76500 180000 (2019) 68600 (2017) 116000 69000 69700 120000 160000 172000
2020-07-08 10:00 12.85 76600 180000 (2019) 68600 (2017) 116000 69000 69700 120000 160000 172000
2020-07-08 09:00 12.85 76600 180000 (2019) 68600 (2017) 116000 69000 69700 120000 160000 172000
2020-07-08 08:00 12.84 76600 180000 (2019) 68600 (2017) 116000 69000 69700 120000 160000 172000
2020-07-08 07:00 12.85 76600 180000 (2019) 68600 (2017) 116000 69000 69700 120000 160000 172000
2020-07-08 06:00 12.85 76600 180000 (2019) 68600 (2017) 116000 69000 69700 120000 160000 172000
2020-07-08 05:00 12.84 76600 180000 (2019) 68600 (2017) 116000 69000 69700 120000 160000 172000
2020-07-08 04:00 12.83 76500 180000 (2019) 68600 (2017) 116000 69000 69700 120000 160000 172000
2020-07-08 03:00 12.84 76600 180000 (2019) 68600 (2017) 116000 69000 69700 120000 160000 172000
2020-07-08 02:00 12.81 76300 180000 (2019) 68600 (2017) 116000 69000 69700 120000 160000 172000
2020-07-08 01:00 12.82 76400 180000 (2019) 68600 (2017) 116000 69000 69700 120000 160000 172000
2020-07-08 00:00 12.82 76400 180000 (2019) 68600 (2017) 116000 69000 69700 120000 160000 172000
2020-07-07 23:00 12.81 76300 177000 (2019) 70600 (2016) 117000 70800 71000 128000 157000 169000
2020-07-07 22:00 12.81 76300 177000 (2019) 70600 (2016) 117000 70800 71000 128000 157000 169000
2020-07-07 21:00 12.81 76300 177000 (2019) 70600 (2016) 117000 70800 71000 128000 157000 169000
2020-07-07 20:00 12.80 76200 177000 (2019) 70600 (2016) 117000 70800 71000 128000 157000 169000
2020-07-07 19:00 12.80 76200 177000 (2019) 70600 (2016) 117000 70800 71000 128000 157000 169000
2020-07-07 18:00 12.82 76400 177000 (2019) 70600 (2016) 117000 70800 71000 128000 157000 169000
2020-07-07 17:00 12.82 76400 177000 (2019) 70600 (2016) 117000 70800 71000 128000 157000 169000
2020-07-07 16:00 12.82 76400 177000 (2019) 70600 (2016) 117000 70800 71000 128000 157000 169000
2020-07-07 15:00 12.84 76600 177000 (2019) 70600 (2016) 117000 70800 71000 128000 157000 169000
2020-07-07 14:00 12.86 76700 177000 (2019) 70600 (2016) 117000 70800 71000 128000 157000 169000
2020-07-07 13:00 12.88 76900 177000 (2019) 70600 (2016) 117000 70800 71000 128000 157000 169000
2020-07-07 12:00 12.88 76900 177000 (2019) 70600 (2016) 117000 70800 71000 128000 157000 169000
2020-07-07 11:00 12.90 77000 177000 (2019) 70600 (2016) 117000 70800 71000 128000 157000 169000
2020-07-07 10:00 12.91 77100 177000 (2019) 70600 (2016) 117000 70800 71000 128000 157000 169000
2020-07-07 09:00 12.95 77400 177000 (2019) 70600 (2016) 117000 70800 71000 128000 157000 169000
2020-07-07 08:00 12.98 77600 177000 (2019) 70600 (2016) 117000 70800 71000 128000 157000 169000
2020-07-07 07:00 12.98 77600 177000 (2019) 70600 (2016) 117000 70800 71000 128000 157000 169000
2020-07-07 06:00 13.02 77900 177000 (2019) 70600 (2016) 117000 70800 71000 128000 157000 169000
2020-07-07 05:00 13.04 78100 177000 (2019) 70600 (2016) 117000 70800 71000 128000 157000 169000
2020-07-07 04:00 13.07 78300 177000 (2019) 70600 (2016) 117000 70800 71000 128000 157000 169000
2020-07-07 03:00 13.08 78400 177000 (2019) 70600 (2016) 117000 70800 71000 128000 157000 169000
2020-07-07 02:00 13.10 78600 177000 (2019) 70600 (2016) 117000 70800 71000 128000 157000 169000
2020-07-07 01:00 13.14 78900 177000 (2019) 70600 (2016) 117000 70800 71000 128000 157000 169000
2020-07-07 00:00 13.16 79000 177000 (2019) 70600 (2016) 117000 70800 71000 128000 157000 169000
2020-07-06 23:00 13.17 79100 183000 (2019) 72800 (2016) 112000 73000 73400 93300 159000 173000
2020-07-06 22:00 13.19 79300 183000 (2019) 72800 (2016) 112000 73000 73400 93300 159000 173000
2020-07-06 21:00 13.23 79600 183000 (2019) 72800 (2016) 112000 73000 73400 93300 159000 173000
2020-07-06 20:00 13.24 79700 183000 (2019) 72800 (2016) 112000 73000 73400 93300 159000 173000
2020-07-06 19:00 13.26 79800 183000 (2019) 72800 (2016) 112000 73000 73400 93300 159000 173000
2020-07-06 18:00 13.27 79900 183000 (2019) 72800 (2016) 112000 73000 73400 93300 159000 173000
2020-07-06 17:00 13.31 80200 183000 (2019) 72800 (2016) 112000 73000 73400 93300 159000 173000
2020-07-06 16:00 13.35 80500 183000 (2019) 72800 (2016) 112000 73000 73400 93300 159000 173000
2020-07-06 15:00 13.35 80500 183000 (2019) 72800 (2016) 112000 73000 73400 93300 159000 173000
2020-07-06 14:00 13.38 80800 183000 (2019) 72800 (2016) 112000 73000 73400 93300 159000 173000
2020-07-06 13:00 13.40 80900 183000 (2019) 72800 (2016) 112000 73000 73400 93300 159000 173000
2020-07-06 12:00 13.43 81200 183000 (2019) 72800 (2016) 112000 73000 73400 93300 159000 173000
2020-07-06 11:00 13.47 81500 183000 (2019) 72800 (2016) 112000 73000 73400 93300 159000 173000
2020-07-06 10:00 13.49 81600 183000 (2019) 72800 (2016) 112000 73000 73400 93300 159000 173000
2020-07-06 09:00 13.52 81900 183000 (2019) 72800 (2016) 112000 73000 73400 93300 159000 173000
2020-07-06 08:00 13.55 82100 183000 (2019) 72800 (2016) 112000 73000 73400 93300 159000 173000
2020-07-06 07:00 13.58 82400 183000 (2019) 72800 (2016) 112000 73000 73400 93300 159000 173000
2020-07-06 06:00 13.60 82500 183000 (2019) 72800 (2016) 112000 73000 73400 93300 159000 173000
2020-07-06 05:00 13.64 82800 183000 (2019) 72800 (2016) 112000 73000 73400 93300 159000 173000
2020-07-06 04:00 13.67 83100 183000 (2019) 72800 (2016) 112000 73000 73400 93300 159000 173000
2020-07-06 03:00 13.72 83500 183000 (2019) 72800 (2016) 112000 73000 73400 93300 159000 173000
2020-07-06 02:00 13.75 83700 183000 (2019) 72800 (2016) 112000 73000 73400 93300 159000 173000
2020-07-06 01:00 13.78 84000 183000 (2019) 72800 (2016) 112000 73000 73400 93300 159000 173000
2020-07-06 00:00 13.81 84200 183000 (2019) 72800 (2016) 112000 73000 73400 93300 159000 173000

A total of 186 rows are displayed for years 2015 through 2019.